Highmount, New York
Current Conditions -  °F | °C
As of 1:35 AM on Monday 26 Jan 2015 (Local Time) from KMSV Reporting Station
Clear Clear  
Wind Chill: 14°   Ceiling: Unl
Heat Index: 14°   Visibility: 10mi
Dew Point:   Wind: 3mph
Humidity: 73%   Direction: 10°N
Pressure: 29.94"   Gusts: NA
Location:  42.14°N, 74.49°W
Report Text: KMSV 260635Z AUTO 01003KT 10SM CLR M10/M14 A2994 RMK AO1
Loading
Personal Weather Stations






























Interactive Weather Map New forecast layout! Learn more

10-Day Weather Forecast

Advertisements
Track Severe Weather on mobile